地図

経路データ

SID SEASON NUMBER BASIN SUBBASIN NAME ISO_TIME NATURE LAT LON WMO_WIND WMO_PRES WMO_AGENCY TRACK_TYPE DIST2LAND LANDFALL IFLAG USA_AGENCY USA_ATCF_ID USA_LAT USA_LON USA_RECORD USA_STATUS USA_WIND USA_PRES USA_SSHS USA_R34_NE USA_R34_SE USA_R34_SW USA_R34_NW USA_R50_NE USA_R50_SE USA_R50_SW USA_R50_NW USA_R64_NE USA_R64_SE USA_R64_SW USA_R64_NW USA_POCI USA_ROCI USA_RMW USA_EYE TOKYO_LAT TOKYO_LON TOKYO_GRADE TOKYO_WIND TOKYO_PRES TOKYO_R50_DIR TOKYO_R50_LONG TOKYO_R50_SHORT TOKYO_R30_DIR TOKYO_R30_LONG TOKYO_R30_SHORT TOKYO_LAND CMA_LAT CMA_LON CMA_CAT CMA_WIND CMA_PRES HKO_LAT HKO_LON HKO_CAT HKO_WIND HKO_PRES NEWDELHI_LAT NEWDELHI_LON NEWDELHI_GRADE NEWDELHI_WIND NEWDELHI_PRES NEWDELHI_CI NEWDELHI_DP NEWDELHI_POCI REUNION_LAT REUNION_LON REUNION_TYPE REUNION_WIND REUNION_PRES REUNION_TNUM REUNION_CI REUNION_RMW REUNION_R34_NE REUNION_R34_SE REUNION_R34_SW REUNION_R34_NW REUNION_R50_NE REUNION_R50_SE REUNION_R50_SW REUNION_R50_NW REUNION_R64_NE REUNION_R64_SE REUNION_R64_SW REUNION_R64_NW BOM_LAT BOM_LON BOM_TYPE BOM_WIND BOM_PRES BOM_TNUM BOM_CI BOM_RMW BOM_R34_NE BOM_R34_SE BOM_R34_SW BOM_R34_NW BOM_R50_NE BOM_R50_SE BOM_R50_SW BOM_R50_NW BOM_R64_NE BOM_R64_SE BOM_R64_SW BOM_R64_NW BOM_ROCI BOM_POCI BOM_EYE BOM_POS_METHOD BOM_PRES_METHOD NADI_LAT NADI_LON NADI_CAT NADI_WIND NADI_PRES WELLINGTON_LAT WELLINGTON_LON WELLINGTON_WIND WELLINGTON_PRES DS824_LAT DS824_LON DS824_STAGE DS824_WIND DS824_PRES TD9636_LAT TD9636_LON TD9636_STAGE TD9636_WIND TD9636_PRES TD9635_LAT TD9635_LON TD9635_WIND TD9635_PRES TD9635_ROCI NEUMANN_LAT NEUMANN_LON NEUMANN_CLASS NEUMANN_WIND NEUMANN_PRES MLC_LAT MLC_LON MLC_CLASS MLC_WIND MLC_PRES USA_GUST BOM_GUST BOM_GUST_PER REUNION_GUST REUNION_GUST_PER USA_SEAHGT USA_SEARAD_NE USA_SEARAD_SE USA_SEARAD_SW USA_SEARAD_NW STORM_SPEED STORM_DIR
1956251N25285 1956 84 NA NA CARLA 1956-09-07 00:00:00 TS 24.8000 -75.0000 30 hurdat_atl main 274 274 O_____________ hurdat_atl AL041956 24.8000 -75.0000 TD 30 -1 5 0
1956251N25285 1956 84 NA NA CARLA 1956-09-07 03:00:00 TS 25.0375 -75.0150 main 278 278 P_____________ AL041956 25.0375 -75.0150 TD 30 -1 5 2
1956251N25285 1956 84 NA NA CARLA 1956-09-07 06:00:00 TS 25.3000 -75.0000 30 hurdat_atl main 286 286 O_____________ hurdat_atl AL041956 25.3000 -75.0000 TD 30 -1 6 8
1956251N25285 1956 84 NA NA CARLA 1956-09-07 09:00:00 TS 25.6125 -74.9298 main 307 307 P_____________ AL041956 25.6125 -74.9298 TD 30 -1 7 15
1956251N25285 1956 84 NA NA CARLA 1956-09-07 12:00:00 TS 26.0000 -74.8000 30 hurdat_atl main 334 334 O_____________ hurdat_atl AL041956 26.0000 -74.8000 TD 30 -1 9 18
1956251N25285 1956 84 NA NA CARLA 1956-09-07 15:00:00 TS 26.4850 -74.6151 main 374 374 P_____________ AL041956 26.4850 -74.6151 TD 30 -1 11 20
1956251N25285 1956 84 NA NA CARLA 1956-09-07 18:00:00 TS 27.0000 -74.4000 30 hurdat_atl main 417 417 O_____________ hurdat_atl AL041956 27.0000 -74.4000 TD 30 -1 11 21
1956251N25285 1956 84 NA NA CARLA 1956-09-07 21:00:00 TS 27.4650 -74.1998 main 463 463 P_____________ AL041956 27.4650 -74.1998 TD 30 -1 10 21
1956251N25285 1956 84 NA NA CARLA 1956-09-08 00:00:00 TS 27.9000 -74.0000 30 hurdat_atl main 505 505 O_____________ hurdat_atl AL041956 27.9000 -74.0000 TD 30 -1 9 23
1956251N25285 1956 84 NA NA CARLA 1956-09-08 03:00:00 TS 28.3225 -73.7925 main 548 548 P_____________ AL041956 28.3225 -73.7925 TD 30 -1 9 24
1956251N25285 1956 84 NA NA CARLA 1956-09-08 06:00:00 TS 28.7000 -73.6000 30 hurdat_atl main 592 592 O_____________ hurdat_atl AL041956 28.7000 -73.6000 TD 30 -1 8 24
1956251N25285 1956 84 NA NA CARLA 1956-09-08 09:00:00 TS 29.0075 -73.4422 main 629 629 P_____________ AL041956 29.0075 -73.4422 TD 32 -1 7 24
1956251N25285 1956 84 NA NA CARLA 1956-09-08 12:00:00 TS 29.3000 -73.3000 35 hurdat_atl main 659 647 O_____________ hurdat_atl AL041956 29.3000 -73.3000 TS 35 0 7 21
1956251N25285 1956 84 NA NA CARLA 1956-09-08 15:00:00 TS 29.6424 -73.1648 main 647 618 P_____________ AL041956 29.6424 -73.1648 TS 35 0 7 20
1956251N25285 1956 84 NA NA CARLA 1956-09-08 18:00:00 TS 30.0000 -73.0000 35 hurdat_atl main 618 600 O_____________ hurdat_atl AL041956 30.0000 -73.0000 TS 35 0 8 26
1956251N25285 1956 84 NA NA CARLA 1956-09-08 21:00:00 TS 30.3500 -72.7650 main 591 581 P_____________ AL041956 30.3500 -72.7650 TS 35 0 8 32
1956251N25285 1956 84 NA NA CARLA 1956-09-09 00:00:00 TS 30.7000 -72.5000 35 1003 hurdat_atl main 581 562 O_____________ hurdat_atl AL041956 30.7000 -72.5000 TS 35 1003 0 8 29
1956251N25285 1956 84 NA NA CARLA 1956-09-09 03:00:00 TS 31.0570 -72.3018 main 560 551 P_____________ AL041956 31.0570 -72.3018 TS 35 1002 0 8 31
1956251N25285 1956 84 NA NA CARLA 1956-09-09 06:00:00 TS 31.4000 -72.0000 35 1002 hurdat_atl main 557 556 O_____________ hurdat_atl AL041956 31.4000 -72.0000 TS 35 1002 0 10 47
1956251N25285 1956 84 NA NA CARLA 1956-09-09 09:00:00 TS 31.7148 -71.4824 main 570 570 P_____________ AL041956 31.7148 -71.4824 TS 37 1001 0 12 60
1956251N25285 1956 84 NA NA CARLA 1956-09-09 12:00:00 TS 32.0000 -70.8000 40 1000 hurdat_atl main 603 603 O_____________ hurdat_atl AL041956 32.0000 -70.8000 TS 40 1000 0 13 66
1956251N25285 1956 84 NA NA CARLA 1956-09-09 15:00:00 TS 32.2416 -70.0737 main 638 638 P_____________ AL041956 32.2416 -70.0737 TS 45 0 14 70
1956251N25285 1956 84 NA NA CARLA 1956-09-09 18:00:00 TS 32.5000 -69.2000 50 hurdat_atl main 685 685 O_____________ hurdat_atl AL041956 32.5000 -69.2000 TS 50 0 17 71
1956251N25285 1956 84 NA NA CARLA 1956-09-09 21:00:00 TS 32.8039 -68.1880 main 747 747 P_____________ AL041956 32.8039 -68.1880 TS 50 0 20 69
1956251N25285 1956 84 NA NA CARLA 1956-09-10 00:00:00 TS 33.2000 -67.0000 50 hurdat_atl main 829 829 O_____________ hurdat_atl AL041956 33.2000 -67.0000 TS 50 0 23 67
1956251N25285 1956 84 NA NA CARLA 1956-09-10 03:00:00 TS 33.7044 -65.6590 main 923 923 P_____________ AL041956 33.7044 -65.6590 TS 52 0 26 65
1956251N25285 1956 84 NA NA CARLA 1956-09-10 06:00:00 ET 34.3000 -64.2000 55 hurdat_atl main 966 966 O_____________ hurdat_atl AL041956 34.3000 -64.2000 EX 55 -4 27 65
1956251N25285 1956 84 NA NA CARLA 1956-09-10 09:00:00 ET 34.8751 -62.6741 main 982 943 P_____________ AL041956 34.8751 -62.6741 EX 57 -4 28 62
1956251N25285 1956 84 NA NA CARLA 1956-09-10 12:00:00 ET 35.6000 -61.2000 60 hurdat_atl main 946 895 O_____________ hurdat_atl AL041956 35.6000 -61.2000 EX 60 -4 28 52
1956251N25285 1956 84 NA NA CARLA 1956-09-10 15:00:00 ET 36.5948 -59.9184 main 893 852 P_____________ AL041956 36.5948 -59.9184 EX 60 -4 29 44
1956251N25285 1956 84 NA NA CARLA 1956-09-10 18:00:00 ET 37.7000 -58.7000 60 hurdat_atl main 849 788 O_____________ hurdat_atl AL041956 37.7000 -58.7000 EX 60 -4 29 43
1956251N25285 1956 84 NA NA CARLA 1956-09-10 21:00:00 ET 38.6975 -57.4391 main 784 735 P_____________ AL041956 38.6975 -57.4391 EX 60 -4 28 45
1956251N25285 1956 84 NA NA CARLA 1956-09-11 00:00:00 ET 39.7000 -56.1000 60 hurdat_atl main 735 672 O_____________ hurdat_atl AL041956 39.7000 -56.1000 EX 60 -4 29 49
1956251N25285 1956 84 NA NA CARLA 1956-09-11 03:00:00 ET 40.6227 -54.5687 main 671 544 P_____________ AL041956 40.6227 -54.5687 EX 60 -4 31 48
1956251N25285 1956 84 NA NA CARLA 1956-09-11 06:00:00 ET 41.8000 -53.0000 60 hurdat_atl main 533 374 O_____________ hurdat_atl AL041956 41.8000 -53.0000 EX 60 -4 36 38
1956251N25285 1956 84 NA NA CARLA 1956-09-11 09:00:00 ET 43.4624 -51.6185 main 366 271 P_____________ AL041956 43.4624 -51.6185 EX 57 -4 43 30
1956251N25285 1956 84 NA NA CARLA 1956-09-11 12:00:00 ET 45.5000 -50.0000 55 hurdat_atl main 271 271 O_____________ hurdat_atl AL041956 45.5000 -50.0000 EX 55 -4 52 33
1956251N25285 1956 84 NA NA CARLA 1956-09-11 15:00:00 ET 47.8103 -47.6030 main 374 374 P_____________ AL041956 47.8103 -47.6030 EX 52 -4 56 37
1956251N25285 1956 84 NA NA CARLA 1956-09-11 18:00:00 ET 50.0000 -45.0000 50 hurdat_atl main 601 601 O_____________ hurdat_atl AL041956 50.0000 -45.0000 EX 50 -4 50 38
1956251N25285 1956 84 NA NA CARLA 1956-09-11 21:00:00 ET 51.7934 -42.8430 main 800 795 P_____________ AL041956 51.7934 -42.8430 EX 50 -4 39 40
1956251N25285 1956 84 NA NA CARLA 1956-09-12 00:00:00 ET 53.0000 -41.0000 50 hurdat_atl main 796 768 O_____________ hurdat_atl AL041956 53.0000 -41.0000 EX 50 -4 26 52
1956251N25285 1956 84 NA NA CARLA 1956-09-12 03:00:00 ET 53.3912 -39.4673 main 773 773 P_____________ AL041956 53.3912 -39.4673 EX 50 -4 19 74
1956251N25285 1956 84 NA NA CARLA 1956-09-12 06:00:00 ET 53.5000 -38.0000 50 hurdat_atl main 792 792 O_____________ hurdat_atl AL041956 53.5000 -38.0000 EX 50 -4 21 75
1956251N25285 1956 84 NA NA CARLA 1956-09-12 09:00:00 ET 53.9180 -36.0702 main 804 804 P_____________ AL041956 53.9180 -36.0702 EX 50 -4 25 67
1956251N25285 1956 84 NA NA CARLA 1956-09-12 12:00:00 ET 54.5000 -34.0000 50 hurdat_atl main 823 822 O_____________ hurdat_atl AL041956 54.5000 -34.0000 EX 50 -4 27 61
1956251N25285 1956 84 NA NA CARLA 1956-09-12 15:00:00 ET 55.2461 -31.9626 main 849 846 P_____________ AL041956 55.2461 -31.9626 EX 50 -4 28 55
1956251N25285 1956 84 NA NA CARLA 1956-09-12 18:00:00 ET 56.1000 -30.0000 50 hurdat_atl main 881 821 O_____________ hurdat_atl AL041956 56.1000 -30.0000 EX 50 -4 27 50
1956251N25285 1956 84 NA NA CARLA 1956-09-12 21:00:00 ET 56.9757 -28.2088 main 809 696 P_____________ AL041956 56.9757 -28.2088 EX 52 -4 25 48
1956251N25285 1956 84 NA NA CARLA 1956-09-13 00:00:00 ET 57.8000 -26.5000 55 hurdat_atl main 694 597 O_____________ hurdat_atl AL041956 57.8000 -26.5000 EX 55 -4 24 50
1956251N25285 1956 84 NA NA CARLA 1956-09-13 03:00:00 ET 58.4858 -24.7828 main 596 521 P_____________ AL041956 58.4858 -24.7828 EX 57 -4 22 57
1956251N25285 1956 84 NA NA CARLA 1956-09-13 06:00:00 ET 59.0000 -23.0000 60 hurdat_atl main 519 478 O_____________ hurdat_atl AL041956 59.0000 -23.0000 EX 60 -4 21 68
1956251N25285 1956 84 NA NA CARLA 1956-09-13 09:00:00 ET 59.2619 -21.0562 main 467 431 P_____________ AL041956 59.2619 -21.0562 EX 60 -4 21 76
1956251N25285 1956 84 NA NA CARLA 1956-09-13 12:00:00 ET 59.5000 -19.0000 60 hurdat_atl main 431 396 O_____________ hurdat_atl AL041956 59.5000 -19.0000 EX 60 -4 22 73
1956251N25285 1956 84 NA NA CARLA 1956-09-13 15:00:00 ET 59.9216 -16.8162 main 399 380 P_____________ AL041956 59.9216 -16.8162 EX 60 -4 25 66
1956251N25285 1956 84 NA NA CARLA 1956-09-13 18:00:00 ET 60.5000 -14.5000 60 hurdat_atl main 383 369 O_____________ hurdat_atl AL041956 60.5000 -14.5000 EX 60 -4 26 62
1956251N25285 1956 84 NA NA CARLA 1956-09-13 21:00:00 ET 61.1712 -12.0609 main 362 356 P_____________ AL041956 61.1712 -12.0609 EX 57 -4 28 58
1956251N25285 1956 84 NA NA CARLA 1956-09-14 00:00:00 ET 62.0000 -9.50000 55 hurdat_atl main 363 363 O_____________ hurdat_atl AL041956 62.0000 -9.50000 EX 55 -4 30 54
1956251N25285 1956 84 NA NA CARLA 1956-09-14 03:00:00 ET 62.9599 -6.78214 main 394 394 P_____________ AL041956 62.9599 -6.78214 EX 55 -4 32 51
1956251N25285 1956 84 NA NA CARLA 1956-09-14 06:00:00 ET 64.0000 -4.00000 55 hurdat_atl main 466 448 O_____________ hurdat_atl AL041956 64.0000 -4.00000 EX 55 -4 32 50
1956251N25285 1956 84 NA NA CARLA 1956-09-14 09:00:00 ET 65.0322 -1.24169 main 445 428 P_____________ AL041956 65.0322 -1.24169 EX 55 -4 30 49
1956251N25285 1956 84 NA NA CARLA 1956-09-14 12:00:00 ET 66.0000 1.50000 55 hurdat_atl main 430 378 O_____________ hurdat_atl AL041956 66.0000 1.50000 EX 55 -4 29 52
1956251N25285 1956 84 NA NA CARLA 1956-09-14 15:00:00 ET 66.8271 4.43930 main 373 285 P_____________ AL041956 66.8271 4.43930 EX 52 -4 26 55
1956251N25285 1956 84 NA NA CARLA 1956-09-14 18:00:00 ET 67.5000 7.00000 50 hurdat_atl main 281 243 O_____________ hurdat_atl AL041956 67.5000 7.00000 EX 50 -4 20 53
1956251N25285 1956 84 NA NA CARLA 1956-09-14 21:00:00 ET 68.0437 8.71358 main 240 208 P_____________ AL041956 68.0437 8.71358 EX 50 -4 15 48
1956251N25285 1956 84 NA NA CARLA 1956-09-15 00:00:00 ET 68.5000 10.0000 50 hurdat_atl main 204 154 O_____________ hurdat_atl AL041956 68.5000 10.0000 EX 50 -4 14 51
1956251N25285 1956 84 NA NA CARLA 1956-09-15 03:00:00 ET 68.9082 11.6015 main 151 118 P_____________ AL041956 68.9082 11.6015 EX 50 -4 13 53
1956251N25285 1956 84 NA NA CARLA 1956-09-15 06:00:00 ET 69.3000 13.0000 50 hurdat_atl main 115 105 O_____________ hurdat_atl AL041956 69.3000 13.0000 EX 50 -4 12 45
1956251N25285 1956 84 NA NA CARLA 1956-09-15 09:00:00 ET 69.7483 14.0042 main 110 110 P_____________ AL041956 69.7483 14.0042 EX 50 -4 11 33
1956251N25285 1956 84 NA NA CARLA 1956-09-15 12:00:00 ET 70.2000 14.7000 50 hurdat_atl main 130 127 O_____________ hurdat_atl AL041956 70.2000 14.7000 EX 50 -4 9 28
1956251N25285 1956 84 NA NA CARLA 1956-09-15 15:00:00 ET 70.5921 15.3083 main 151 149 P_____________ AL041956 70.5921 15.3083 EX 47 -4 9 23
1956251N25285 1956 84 NA NA CARLA 1956-09-15 18:00:00 ET 71.0000 15.7000 45 hurdat_atl main 181 181 O_____________ hurdat_atl AL041956 71.0000 15.7000 EX 45 -4 9 13
1956251N25285 1956 84 NA NA CARLA 1956-09-15 21:00:00 ET 71.4848 15.9271 main 230 230 P_____________ AL041956 71.4848 15.9271 EX 42 -4 10 6
1956251N25285 1956 84 NA NA CARLA 1956-09-16 00:00:00 ET 72.0000 16.0000 40 hurdat_atl main 271 271 O_____________ hurdat_atl AL041956 72.0000 16.0000 EX 40 -4 10 0
1956251N25285 1956 84 NA NA CARLA 1956-09-16 03:00:00 ET 72.5051 16.0121 main 313 313 P_____________ AL041956 72.5051 16.0121 EX 37 -4 10 1
1956251N25285 1956 84 NA NA CARLA 1956-09-16 06:00:00 ET 73.0000 16.0000 35 hurdat_atl main 357 O_____________ hurdat_atl AL041956 73.0000 16.0000 EX 35 -4 10 0

IBTrACS Databaseについて

本データベースは、米国NOAAが公開する1842年以降の世界の熱帯低気圧のベストトラックデータアーカイブInternational Best Track Archive for Climate Stewardship (IBTrACS)を、ウェブで閲覧しやすい形式に変換したものです。

最終更新日:2021-10-08